createdAt,value
2019-05-09T00:02:39.476Z,13.55
2019-05-09T00:05:10.838Z,13.61
2019-05-09T00:07:41.114Z,13.70
2019-05-09T00:10:14.189Z,13.67
2019-05-09T00:12:44.669Z,13.53
2019-05-09T00:15:16.613Z,13.51
2019-05-09T00:17:47.665Z,12.81
2019-05-09T00:20:40.136Z,13.37
2019-05-09T00:23:10.247Z,13.36
2019-05-09T00:25:43.435Z,13.27
2019-05-09T00:28:14.598Z,13.16
2019-05-09T00:31:03.472Z,12.95
2019-05-09T00:33:34.702Z,12.87
2019-05-09T00:36:05.588Z,12.76
2019-05-09T00:38:43.452Z,12.74
2019-05-09T00:41:14.467Z,12.64
2019-05-09T00:43:50.244Z,12.70
2019-05-09T00:46:36.197Z,12.73
2019-05-09T00:49:09.160Z,12.70
2019-05-09T00:51:40.330Z,12.58
2019-05-09T00:54:13.349Z,12.61
2019-05-09T00:56:43.610Z,12.69
2019-05-09T00:59:13.757Z,12.75
2019-05-09T01:01:45.315Z,12.78
2019-05-09T01:04:15.687Z,12.78
2019-05-09T01:06:46.783Z,12.76
2019-05-09T01:09:17.031Z,12.76
2019-05-09T01:11:49.512Z,12.14
2019-05-09T01:14:23.339Z,12.79
2019-05-09T01:16:54.653Z,12.86
2019-05-09T01:19:25.122Z,12.95
2019-05-09T01:21:56.020Z,12.99
2019-05-09T01:24:27.176Z,13.02
2019-05-09T01:26:57.380Z,13.14
2019-05-09T01:29:27.847Z,13.22
2019-05-09T01:31:59.810Z,13.22
2019-05-09T01:34:33.098Z,13.27
2019-05-09T01:37:07.647Z,13.31
2019-05-09T01:39:39.013Z,13.32
2019-05-09T01:42:10.605Z,13.28
2019-05-09T01:44:40.675Z,13.18
2019-05-09T01:47:11.275Z,13.24
2019-05-09T01:49:43.143Z,13.28
2019-05-09T01:52:13.871Z,13.29
2019-05-09T01:54:46.455Z,13.25
2019-05-09T01:57:16.926Z,13.15
2019-05-09T01:59:47.780Z,12.43
2019-05-09T02:02:18.524Z,12.89
2019-05-09T02:04:50.373Z,12.86
2019-05-09T02:07:24.967Z,12.77
2019-05-09T02:09:56.901Z,12.09
2019-05-09T02:12:27.467Z,12.60
2019-05-09T02:15:23.672Z,12.51
2019-05-09T02:18:13.703Z,12.49
2019-05-09T02:20:44.110Z,12.36
2019-05-09T02:23:14.415Z,12.22
2019-05-09T02:25:45.090Z,12.26
2019-05-09T02:28:16.726Z,12.07
2019-05-09T02:30:47.222Z,12.11
2019-05-09T02:33:17.458Z,12.11
2019-05-09T02:35:56.610Z,12.08
2019-05-09T02:38:20.208Z,12.04
2019-05-09T02:40:51.248Z,12.01
2019-05-09T02:43:21.755Z,11.72
2019-05-09T02:45:59.882Z,11.95
2019-05-09T02:48:30.227Z,11.95
2019-05-09T02:51:00.597Z,11.99
2019-05-09T02:53:30.749Z,11.91
2019-05-09T02:56:02.542Z,11.91
2019-05-09T02:58:39.143Z,11.86
2019-05-09T03:01:21.252Z,11.86
2019-05-09T03:03:52.708Z,11.74
2019-05-09T03:06:23.381Z,11.73
2019-05-09T03:08:54.049Z,11.67
2019-05-09T03:11:24.177Z,11.68
2019-05-09T03:13:58.357Z,11.65
2019-05-09T03:16:29.298Z,11.67
2019-05-09T03:18:59.801Z,11.72
2019-05-09T03:21:40.446Z,11.56
2019-05-09T03:24:10.705Z,11.43
2019-05-09T03:26:42.636Z,11.48
2019-05-09T03:29:28.878Z,11.25
2019-05-09T03:31:59.993Z,11.30
2019-05-09T03:34:32.645Z,11.25
2019-05-09T03:37:03.161Z,11.20
2019-05-09T03:39:34.230Z,11.17
2019-05-09T03:42:05.090Z,11.02
2019-05-09T03:44:35.243Z,11.01
2019-05-09T03:47:37.748Z,11.02
2019-05-09T03:50:09.957Z,10.99
2019-05-09T03:52:40.847Z,11.00
2019-05-09T03:55:14.897Z,10.86
2019-05-09T03:58:40.632Z,10.80
2019-05-09T04:01:54.442Z,10.77
2019-05-09T04:05:08.448Z,10.76
2019-05-09T04:07:39.476Z,10.78
2019-05-09T04:10:10.154Z,10.69
2019-05-09T04:12:52.850Z,10.62
2019-05-09T04:15:13.139Z,10.64
2019-05-09T04:17:44.429Z,10.62
2019-05-09T04:20:17.492Z,10.64
2019-05-09T04:22:49.033Z,10.77
2019-05-09T04:25:24.067Z,10.81
2019-05-09T04:27:55.151Z,10.84
2019-05-09T04:30:27.415Z,10.83
2019-05-09T04:32:58.214Z,10.89
2019-05-09T04:35:29.299Z,10.94
2019-05-09T04:37:59.229Z,10.96
2019-05-09T04:40:32.040Z,10.97
2019-05-09T04:43:12.054Z,10.91
2019-05-09T04:45:53.407Z,10.94
2019-05-09T04:48:33.796Z,11.00
2019-05-09T04:51:07.598Z,11.12
2019-05-09T04:53:39.779Z,11.33
2019-05-09T04:56:23.085Z,11.48
2019-05-09T04:58:53.091Z,11.62
2019-05-09T05:01:38.756Z,11.81
2019-05-09T05:04:08.007Z,12.02
2019-05-09T05:06:40.319Z,12.15
2019-05-09T05:09:10.767Z,12.20
2019-05-09T05:11:40.628Z,12.28
2019-05-09T05:14:21.680Z,12.32
2019-05-09T05:16:58.252Z,12.39
2019-05-09T05:19:31.206Z,12.41
2019-05-09T05:22:07.458Z,12.47
2019-05-09T05:24:43.705Z,12.46
2019-05-09T05:27:18.835Z,12.48
2019-05-09T05:29:49.097Z,12.38
2019-05-09T05:32:38.463Z,12.41
2019-05-09T05:35:12.779Z,12.32
2019-05-09T05:37:43.382Z,11.78
2019-05-09T05:40:13.893Z,12.36
2019-05-09T05:42:43.849Z,12.40
2019-05-09T05:45:14.577Z,12.53
2019-05-09T05:47:57.856Z,12.67
2019-05-09T05:50:28.203Z,12.65
2019-05-09T05:53:00.415Z,12.15
2019-05-09T05:55:30.492Z,12.74
2019-05-09T05:58:00.718Z,12.85
2019-05-09T06:00:32.019Z,12.92
2019-05-09T06:03:03.000Z,12.93
2019-05-09T06:05:34.233Z,13.04
2019-05-09T06:08:04.571Z,13.11
2019-05-09T06:10:39.398Z,13.26
2019-05-09T06:13:09.411Z,13.76
2019-05-09T06:15:40.817Z,14.14
2019-05-09T06:18:11.172Z,14.30
2019-05-09T06:20:41.455Z,14.66
2019-05-09T06:23:11.385Z,14.82
2019-05-09T06:25:42.545Z,14.91
2019-05-09T06:28:13.080Z,15.15
2019-05-09T06:30:43.479Z,15.55
2019-05-09T06:33:13.545Z,15.00
2019-05-09T06:35:43.686Z,15.61
2019-05-09T06:38:13.778Z,15.84
2019-05-09T06:40:44.168Z,16.08
2019-05-09T06:43:23.151Z,16.41
2019-05-09T06:46:09.127Z,16.20
2019-05-09T06:48:41.790Z,16.21
2019-05-09T06:51:11.780Z,16.45
2019-05-09T06:53:42.479Z,16.63
2019-05-09T06:56:17.777Z,16.53
2019-05-09T06:58:48.180Z,16.51
2019-05-09T07:01:48.039Z,15.95
2019-05-09T07:04:24.060Z,16.70
2019-05-09T07:07:04.745Z,16.26
2019-05-09T07:09:40.565Z,15.80
2019-05-09T07:12:10.888Z,15.65
2019-05-09T07:14:42.020Z,15.40
2019-05-09T07:17:12.861Z,15.07
2019-05-09T07:19:44.109Z,15.60
2019-05-09T07:22:42.701Z,15.81
2019-05-09T07:25:24.598Z,16.09
2019-05-09T07:27:54.951Z,15.93
2019-05-09T07:30:52.800Z,15.87
2019-05-09T07:33:30.267Z,15.77
2019-05-09T07:36:00.412Z,15.92
2019-05-09T07:38:31.580Z,15.79
2019-05-09T07:41:01.931Z,15.73
2019-05-09T07:43:32.154Z,15.87
2019-05-09T07:46:11.306Z,15.86
2019-05-09T07:48:42.245Z,15.71
2019-05-09T07:51:12.452Z,15.51
2019-05-09T07:53:42.467Z,15.51
2019-05-09T07:56:12.509Z,15.60
2019-05-09T07:58:42.659Z,15.61
2019-05-09T08:01:12.749Z,15.57
2019-05-09T08:03:43.332Z,15.56
2019-05-09T08:06:13.570Z,15.70
2019-05-09T08:08:43.491Z,15.16
2019-05-09T08:11:13.545Z,15.74
2019-05-09T08:13:44.092Z,15.99
2019-05-09T08:16:14.966Z,16.23
2019-05-09T08:18:45.338Z,16.21
2019-05-09T08:21:17.861Z,16.31
2019-05-09T08:23:48.553Z,16.96
2019-05-09T08:26:19.080Z,17.35
2019-05-09T08:28:49.677Z,17.16
2019-05-09T08:31:19.854Z,17.58
2019-05-09T08:33:50.066Z,17.52
2019-05-09T08:36:20.432Z,17.36
2019-05-09T08:38:50.361Z,17.43
2019-05-09T08:41:20.506Z,17.27
2019-05-09T08:43:54.124Z,17.28
2019-05-09T08:46:24.690Z,16.96
2019-05-09T08:48:57.565Z,16.93
2019-05-09T08:51:52.681Z,16.88
2019-05-09T08:54:30.450Z,16.91
2019-05-09T08:57:00.561Z,16.85
2019-05-09T08:59:31.330Z,17.01
2019-05-09T09:02:15.437Z,16.98
2019-05-09T09:04:38.370Z,17.26
2019-05-09T09:07:08.575Z,17.43
2019-05-09T09:09:39.982Z,16.74
2019-05-09T09:12:25.770Z,17.54
2019-05-09T09:14:43.106Z,17.57
2019-05-09T09:17:12.437Z,17.98
2019-05-09T09:19:47.762Z,18.26
2019-05-09T09:22:18.109Z,18.63
2019-05-09T09:24:48.406Z,18.90
2019-05-09T09:27:18.740Z,19.08
2019-05-09T09:29:49.919Z,19.12
2019-05-09T09:32:20.238Z,19.18
2019-05-09T09:34:50.274Z,19.58
2019-05-09T09:37:20.976Z,19.14
2019-05-09T09:39:53.287Z,19.53
2019-05-09T09:42:28.280Z,19.35
2019-05-09T09:45:00.650Z,19.46
2019-05-09T09:47:31.961Z,19.81
2019-05-09T09:50:02.970Z,19.65
2019-05-09T09:52:34.646Z,19.78
2019-05-09T09:55:11.692Z,19.55
2019-05-09T09:57:42.138Z,19.33
2019-05-09T10:00:49.785Z,19.39
2019-05-09T10:03:25.698Z,19.30
2019-05-09T10:05:59.283Z,19.15
2019-05-09T10:08:29.735Z,19.05
2019-05-09T10:11:01.189Z,18.95
2019-05-09T10:13:34.363Z,18.97
2019-05-09T10:16:25.585Z,19.18
2019-05-09T10:19:04.263Z,19.20
2019-05-09T10:21:41.579Z,18.98
2019-05-09T10:24:12.894Z,18.21
2019-05-09T10:27:01.273Z,18.56
2019-05-09T10:29:32.031Z,18.31
2019-05-09T10:32:04.526Z,18.45
2019-05-09T10:34:37.682Z,18.52
2019-05-09T10:37:07.727Z,18.76
2019-05-09T10:39:38.217Z,18.58
2019-05-09T10:42:18.830Z,18.68
2019-05-09T10:44:54.472Z,19.04
2019-05-09T10:47:30.507Z,18.91
2019-05-09T10:50:02.121Z,18.94
2019-05-09T10:52:32.598Z,19.11
2019-05-09T10:55:04.147Z,19.30
2019-05-09T10:57:34.576Z,19.31
2019-05-09T11:00:06.228Z,19.50
2019-05-09T11:02:38.081Z,19.40
2019-05-09T11:05:10.624Z,19.60
2019-05-09T11:07:41.643Z,19.98
2019-05-09T11:10:24.525Z,20.13
2019-05-09T11:12:43.683Z,20.44
2019-05-09T11:15:18.056Z,20.44
2019-05-09T11:17:47.953Z,20.53
2019-05-09T11:20:19.387Z,20.04
2019-05-09T11:22:52.962Z,20.05
2019-05-09T11:25:23.509Z,19.88
2019-05-09T11:28:09.959Z,19.73
2019-05-09T11:30:28.115Z,19.90
2019-05-09T11:32:59.791Z,19.87
2019-05-09T11:35:30.079Z,19.90
2019-05-09T11:38:00.161Z,20.14
2019-05-09T11:40:30.272Z,20.01
2019-05-09T11:43:00.710Z,19.90
2019-05-09T11:45:35.963Z,20.07
2019-05-09T11:48:08.122Z,20.34
2019-05-09T11:50:38.907Z,20.55
2019-05-09T11:53:09.120Z,20.47
2019-05-09T11:55:43.119Z,20.10
2019-05-09T11:58:11.254Z,19.97
2019-05-09T12:00:42.269Z,19.93
2019-05-09T12:03:14.036Z,20.09
2019-05-09T12:05:47.623Z,20.01
2019-05-09T12:08:17.856Z,20.31
2019-05-09T12:10:48.769Z,20.43
2019-05-09T12:13:18.935Z,20.53
2019-05-09T12:15:49.241Z,20.77
2019-05-09T12:18:19.846Z,20.88
2019-05-09T12:20:50.927Z,20.85
2019-05-09T12:23:21.276Z,20.79
2019-05-09T12:25:51.425Z,20.58
2019-05-09T12:28:21.775Z,20.15
2019-05-09T12:30:52.792Z,20.62
2019-05-09T12:33:28.487Z,20.39
2019-05-09T12:35:59.219Z,20.60
2019-05-09T12:38:29.705Z,20.87
2019-05-09T12:41:00.669Z,21.21
2019-05-09T12:43:30.831Z,21.58
2019-05-09T12:46:03.049Z,21.47
2019-05-09T12:48:33.158Z,21.19
2019-05-09T12:51:08.218Z,21.69
2019-05-09T12:53:39.717Z,21.66
2019-05-09T12:56:10.840Z,21.63
2019-05-09T12:58:41.529Z,21.64
2019-05-09T13:01:13.089Z,21.32
2019-05-09T13:03:43.739Z,20.72
2019-05-09T13:06:20.509Z,21.33
2019-05-09T13:08:51.543Z,21.60
2019-05-09T13:11:23.381Z,21.77
2019-05-09T13:13:54.950Z,21.77
2019-05-09T13:16:49.211Z,21.34
2019-05-09T13:19:18.307Z,21.37
2019-05-09T13:21:48.613Z,21.40
2019-05-09T13:24:24.979Z,21.07
2019-05-09T13:26:56.401Z,21.16
2019-05-09T13:29:29.611Z,21.39
2019-05-09T13:32:00.677Z,21.61
2019-05-09T13:34:31.069Z,21.60
2019-05-09T13:37:08.820Z,21.67
2019-05-09T13:39:39.719Z,22.06
2019-05-09T13:42:10.130Z,22.25
2019-05-09T13:44:41.583Z,22.17
2019-05-09T13:47:11.823Z,22.15
2019-05-09T13:49:43.622Z,21.95
2019-05-09T13:52:14.145Z,22.26
2019-05-09T13:54:44.589Z,22.12
2019-05-09T13:57:15.097Z,22.15
2019-05-09T13:59:48.368Z,22.12
2019-05-09T14:02:18.945Z,21.95
2019-05-09T14:04:58.389Z,21.63
2019-05-09T14:07:32.354Z,21.09
2019-05-09T14:10:02.977Z,20.91
2019-05-09T14:12:33.510Z,20.30
2019-05-09T14:15:04.863Z,19.72
2019-05-09T14:17:48.397Z,18.77
2019-05-09T14:20:09.024Z,18.35
2019-05-09T14:22:39.359Z,17.93
2019-05-09T14:25:11.560Z,17.40
2019-05-09T14:27:42.231Z,17.27
2019-05-09T14:30:12.614Z,17.09
2019-05-09T14:32:43.125Z,16.84
2019-05-09T14:35:14.304Z,16.56
2019-05-09T14:37:44.525Z,16.09
2019-05-09T14:40:17.450Z,16.05
2019-05-09T14:42:49.508Z,15.66
2019-05-09T14:45:19.433Z,15.72
2019-05-09T14:47:49.832Z,15.89
2019-05-09T14:50:28.341Z,16.09
2019-05-09T14:52:58.401Z,16.21
2019-05-09T14:55:30.797Z,16.47
2019-05-09T14:58:03.683Z,16.85
2019-05-09T15:00:41.669Z,17.23
2019-05-09T15:03:18.923Z,17.66
2019-05-09T15:05:57.367Z,18.10
2019-05-09T15:08:28.577Z,18.66
2019-05-09T15:11:03.442Z,18.97
2019-05-09T15:13:36.394Z,19.13
2019-05-09T15:16:18.218Z,19.18
2019-05-09T15:18:48.675Z,19.31
2019-05-09T15:21:19.378Z,18.99
2019-05-09T15:23:52.421Z,19.05
2019-05-09T15:26:22.931Z,19.04
2019-05-09T15:28:54.139Z,19.09
2019-05-09T15:31:28.882Z,19.22
2019-05-09T15:33:59.362Z,19.45
2019-05-09T15:36:37.782Z,19.61
2019-05-09T15:39:11.223Z,19.97
2019-05-09T15:41:41.457Z,20.17
2019-05-09T15:44:11.910Z,20.31
2019-05-09T15:46:49.488Z,19.97
2019-05-09T15:49:19.667Z,19.70
2019-05-09T15:51:49.820Z,19.69
2019-05-09T15:54:19.826Z,19.75
2019-05-09T15:56:50.132Z,19.66
2019-05-09T15:59:20.108Z,19.59
2019-05-09T16:01:50.342Z,19.35
2019-05-09T16:04:20.687Z,19.37
2019-05-09T16:06:51.859Z,19.64
2019-05-09T16:09:22.434Z,19.42
2019-05-09T16:11:52.610Z,19.15
2019-05-09T16:14:22.753Z,19.22
2019-05-09T16:16:52.619Z,18.38
2019-05-09T16:19:22.898Z,18.85
2019-05-09T16:21:53.092Z,18.93
2019-05-09T16:24:23.247Z,19.07
2019-05-09T16:26:53.702Z,18.99
2019-05-09T16:29:23.999Z,19.01
2019-05-09T16:31:54.251Z,18.80
2019-05-09T16:34:24.386Z,18.81
2019-05-09T16:36:54.398Z,18.89
2019-05-09T16:39:24.538Z,18.79
2019-05-09T16:41:59.003Z,18.73
2019-05-09T16:44:27.672Z,18.71
2019-05-09T16:46:57.838Z,18.53
2019-05-09T16:49:29.251Z,18.49
2019-05-09T16:52:00.237Z,18.30
2019-05-09T16:54:34.245Z,18.23
2019-05-09T16:57:08.247Z,18.13
2019-05-09T16:59:38.971Z,18.11
2019-05-09T17:02:21.366Z,17.97
2019-05-09T17:04:44.045Z,17.77
2019-05-09T17:07:18.042Z,17.71
2019-05-09T17:09:48.527Z,17.37
2019-05-09T17:12:21.858Z,17.25
2019-05-09T17:14:51.789Z,17.26
2019-05-09T17:17:21.840Z,17.12
2019-05-09T17:19:52.406Z,17.14
2019-05-09T17:22:41.343Z,16.93
2019-05-09T17:25:11.542Z,16.90
2019-05-09T17:27:41.593Z,16.75
2019-05-09T17:30:12.907Z,16.61
2019-05-09T17:32:43.296Z,16.45
2019-05-09T17:35:18.534Z,16.38
2019-05-09T17:37:48.605Z,16.45
2019-05-09T17:40:20.068Z,16.45
2019-05-09T17:42:50.840Z,16.44
2019-05-09T17:45:21.610Z,15.88
2019-05-09T17:47:51.839Z,16.39
2019-05-09T17:50:22.238Z,16.34
2019-05-09T17:52:52.150Z,16.25
2019-05-09T17:55:22.258Z,16.12
2019-05-09T17:57:52.664Z,15.95
2019-05-09T18:00:24.755Z,15.94
2019-05-09T18:02:57.451Z,15.92
2019-05-09T18:05:28.853Z,15.95
2019-05-09T18:07:59.995Z,16.00
2019-05-09T18:10:32.847Z,16.03
2019-05-09T18:13:03.594Z,16.00
2019-05-09T18:15:33.902Z,16.02
2019-05-09T18:18:03.979Z,16.08
2019-05-09T18:20:38.531Z,15.96
2019-05-09T18:23:13.103Z,16.00
2019-05-09T18:25:45.152Z,15.91
2019-05-09T18:28:18.082Z,15.86
2019-05-09T18:30:50.126Z,15.77
2019-05-09T18:33:31.939Z,15.75
2019-05-09T18:36:02.971Z,15.72
2019-05-09T18:38:38.611Z,15.71
2019-05-09T18:41:10.237Z,15.72
2019-05-09T18:43:41.777Z,15.71
2019-05-09T18:46:12.886Z,15.47
2019-05-09T18:48:43.511Z,15.38
2019-05-09T18:51:15.026Z,15.25
2019-05-09T18:53:48.349Z,15.32
2019-05-09T18:56:18.763Z,15.34
2019-05-09T18:58:50.368Z,15.37
2019-05-09T19:01:22.527Z,15.36
2019-05-09T19:03:52.939Z,15.32
2019-05-09T19:06:25.368Z,15.26
2019-05-09T19:08:56.933Z,15.20
2019-05-09T19:11:29.628Z,15.06
2019-05-09T19:14:02.486Z,14.90
2019-05-09T19:16:42.109Z,14.90
2019-05-09T19:19:35.384Z,14.88
2019-05-09T19:22:21.361Z,14.80
2019-05-09T19:24:41.888Z,14.81
2019-05-09T19:27:12.269Z,14.69
2019-05-09T19:29:42.658Z,14.70
2019-05-09T19:32:13.751Z,14.67
2019-05-09T19:34:44.574Z,14.64
2019-05-09T19:37:14.896Z,14.57
2019-05-09T19:39:46.051Z,14.53
2019-05-09T19:42:16.250Z,14.50
2019-05-09T19:44:46.513Z,14.48
2019-05-09T19:47:18.447Z,14.56
2019-05-09T19:49:49.274Z,14.59
2019-05-09T19:52:19.642Z,14.61
2019-05-09T19:54:50.194Z,14.61
2019-05-09T19:57:21.025Z,14.58
2019-05-09T19:59:53.156Z,14.52
2019-05-09T20:02:24.306Z,14.54
2019-05-09T20:04:56.394Z,14.60
2019-05-09T20:07:32.966Z,14.65
2019-05-09T20:10:22.716Z,14.66
2019-05-09T20:13:10.979Z,14.62
2019-05-09T20:15:42.071Z,14.60
2019-05-09T20:18:14.171Z,14.56
2019-05-09T20:20:46.166Z,14.58
2019-05-09T20:23:16.712Z,13.97
2019-05-09T20:25:47.661Z,13.96
2019-05-09T20:28:19.678Z,14.57
2019-05-09T20:30:50.065Z,14.61
2019-05-09T20:33:20.585Z,14.61
2019-05-09T20:35:51.908Z,14.59
2019-05-09T20:38:22.801Z,14.59
2019-05-09T20:40:53.442Z,14.53
2019-05-09T20:43:21.617Z,14.50
2019-05-09T20:45:54.567Z,14.53
2019-05-09T20:48:25.307Z,14.50
2019-05-09T20:50:57.121Z,14.45
2019-05-09T20:53:32.635Z,14.47
2019-05-09T20:56:06.200Z,14.48
2019-05-09T20:58:37.975Z,13.60
2019-05-09T21:01:08.854Z,14.50
2019-05-09T21:03:39.418Z,14.50
2019-05-09T21:06:11.122Z,14.49
2019-05-09T21:08:41.466Z,14.36
2019-05-09T21:11:12.952Z,14.36
2019-05-09T21:13:48.278Z,14.34
2019-05-09T21:16:15.793Z,14.37
2019-05-09T21:18:46.275Z,14.39
2019-05-09T21:21:16.771Z,14.41
2019-05-09T21:23:48.012Z,13.93
2019-05-09T21:26:19.053Z,14.43
2019-05-09T21:28:49.687Z,14.36
2019-05-09T21:31:20.047Z,14.17
2019-05-09T21:33:50.154Z,14.23
2019-05-09T21:36:21.728Z,14.06
2019-05-09T21:38:53.104Z,13.96
2019-05-09T21:41:23.410Z,13.86
2019-05-09T21:43:53.918Z,13.93
2019-05-09T21:46:24.229Z,13.85
2019-05-09T21:48:54.590Z,13.92
2019-05-09T21:51:24.953Z,13.94
2019-05-09T21:53:59.939Z,13.95
2019-05-09T21:56:30.597Z,13.93
2019-05-09T21:59:00.620Z,13.92
2019-05-09T22:01:32.165Z,13.90
2019-05-09T22:04:06.737Z,13.90
2019-05-09T22:06:37.365Z,13.86
2019-05-09T22:09:10.398Z,13.87
2019-05-09T22:11:40.827Z,13.84
2019-05-09T22:14:12.071Z,13.86
2019-05-09T22:16:43.447Z,13.84
2019-05-09T22:19:14.364Z,13.79
2019-05-09T22:21:44.812Z,13.75
2019-05-09T22:24:15.710Z,13.79
2019-05-09T22:26:46.897Z,13.84
2019-05-09T22:29:17.114Z,13.85
2019-05-09T22:31:47.205Z,13.85
2019-05-09T22:34:17.704Z,13.81
2019-05-09T22:36:48.953Z,13.79
2019-05-09T22:39:19.290Z,13.81
2019-05-09T22:41:51.392Z,13.78
2019-05-09T22:44:24.179Z,13.80
2019-05-09T22:46:54.136Z,13.78
2019-05-09T22:49:24.292Z,13.74
2019-05-09T22:51:55.930Z,13.79
2019-05-09T22:54:27.315Z,13.85
2019-05-09T22:56:57.845Z,13.91
2019-05-09T22:59:28.273Z,13.91
2019-05-09T23:01:58.682Z,13.85
2019-05-09T23:04:29.243Z,13.83
2019-05-09T23:07:04.427Z,13.84
2019-05-09T23:09:37.575Z,13.92
2019-05-09T23:12:12.647Z,13.90
2019-05-09T23:14:44.698Z,13.92
2019-05-09T23:17:18.628Z,13.92
2019-05-09T23:19:49.173Z,13.92
2019-05-09T23:22:22.621Z,13.96
2019-05-09T23:24:57.273Z,13.92
2019-05-09T23:27:31.849Z,13.88
2019-05-09T23:30:02.045Z,13.82
2019-05-09T23:32:39.235Z,13.75
2019-05-09T23:35:09.780Z,13.68
2019-05-09T23:37:39.954Z,13.56
2019-05-09T23:40:11.020Z,13.57
2019-05-09T23:42:41.665Z,13.51
2019-05-09T23:45:12.381Z,13.41
2019-05-09T23:47:42.431Z,13.24
2019-05-09T23:50:12.700Z,13.28
2019-05-09T23:52:42.773Z,13.24
2019-05-09T23:55:31.038Z,13.19
2019-05-09T23:58:18.921Z,13.17
